createdAt,value
2022-10-10T00:00:30.702Z,6.70
2022-10-10T00:03:20.067Z,7.50
2022-10-10T00:05:48.439Z,7.50
2022-10-10T00:08:16.631Z,6.60
2022-10-10T00:10:44.836Z,7.10
2022-10-10T00:13:13.173Z,6.00
2022-10-10T00:15:43.730Z,6.20
2022-10-10T00:18:18.094Z,6.90
2022-10-10T00:20:46.425Z,7.00
2022-10-10T00:23:14.646Z,7.90
2022-10-10T00:25:42.889Z,7.30
2022-10-10T00:28:12.564Z,7.20
2022-10-10T00:30:41.014Z,6.90
2022-10-10T00:33:09.375Z,6.70
2022-10-10T00:35:37.580Z,8.30
2022-10-10T00:38:05.855Z,10.10
2022-10-10T00:40:44.083Z,8.50
2022-10-10T00:43:14.840Z,10.00
2022-10-10T00:45:46.440Z,7.20
2022-10-10T00:48:20.223Z,9.70
2022-10-10T00:50:58.903Z,8.70
2022-10-10T00:53:46.168Z,8.30
2022-10-10T00:56:18.081Z,10.30
2022-10-10T00:58:54.008Z,10.20
2022-10-10T01:01:22.624Z,9.80
2022-10-10T01:03:50.913Z,8.80
2022-10-10T01:06:19.439Z,8.60
2022-10-10T01:08:48.034Z,8.70
2022-10-10T01:11:22.088Z,8.40
2022-10-10T01:14:40.592Z,9.30
2022-10-10T01:17:21.312Z,8.30
2022-10-10T01:20:07.831Z,8.60
2022-10-10T01:23:02.849Z,9.60
2022-10-10T01:25:40.717Z,8.00
2022-10-10T01:28:49.861Z,7.20
2022-10-10T01:31:22.767Z,9.50
2022-10-10T01:34:13.089Z,7.50
2022-10-10T01:37:00.299Z,8.90
2022-10-10T01:39:44.274Z,9.80
2022-10-10T01:42:42.355Z,9.40
2022-10-10T01:45:10.903Z,10.40
2022-10-10T01:47:39.276Z,11.10
2022-10-10T01:50:21.208Z,9.00
2022-10-10T01:53:49.624Z,9.40
2022-10-10T01:56:47.294Z,9.60
2022-10-10T01:59:48.540Z,9.10
2022-10-10T02:02:35.747Z,9.70
2022-10-10T02:05:57.856Z,9.70
2022-10-10T02:08:43.547Z,10.80
2022-10-10T02:11:13.421Z,8.60
2022-10-10T02:13:54.473Z,10.90
2022-10-10T02:16:34.823Z,9.30
2022-10-10T02:19:08.643Z,8.80
2022-10-10T02:21:40.609Z,9.40
2022-10-10T02:24:10.997Z,10.60
2022-10-10T02:26:44.198Z,9.70
2022-10-10T02:29:24.676Z,9.80
2022-10-10T02:32:24.274Z,10.30
2022-10-10T02:34:57.937Z,9.40
2022-10-10T02:37:27.593Z,10.50
2022-10-10T02:40:02.217Z,10.70
2022-10-10T02:42:31.528Z,8.40
2022-10-10T02:45:00.078Z,10.80
2022-10-10T02:47:28.514Z,9.40
2022-10-10T02:49:57.149Z,9.80
2022-10-10T02:52:25.516Z,7.50
2022-10-10T02:54:54.073Z,10.40
2022-10-10T02:57:22.330Z,10.70
2022-10-10T02:59:50.697Z,9.70
2022-10-10T03:02:18.918Z,10.10
2022-10-10T03:04:47.223Z,11.80
2022-10-10T03:07:15.480Z,10.40
2022-10-10T03:09:43.691Z,10.00
2022-10-10T03:14:40.147Z,11.20
2022-10-10T03:17:08.483Z,11.80
2022-10-10T03:19:37.528Z,12.80
2022-10-10T03:44:01.101Z,13.70
2022-10-10T03:46:29.457Z,13.00
2022-10-10T03:48:57.850Z,11.60
2022-10-10T03:51:26.368Z,12.50
2022-10-10T03:53:55.111Z,11.80
2022-10-10T03:56:23.299Z,11.80
2022-10-10T03:58:51.510Z,13.40
2022-10-10T04:01:19.962Z,11.90
2022-10-10T04:03:52.040Z,11.50
2022-10-10T04:06:21.001Z,11.70
2022-10-10T04:08:49.440Z,12.70
2022-10-10T04:11:18.002Z,11.80
2022-10-10T04:13:46.568Z,13.40
2022-10-10T04:16:14.946Z,12.70
2022-10-10T04:22:16.683Z,11.70
2022-10-10T04:24:45.298Z,13.20
2022-10-10T04:27:13.820Z,11.20
2022-10-10T04:29:42.250Z,12.80
2022-10-10T04:32:25.594Z,14.40
2022-10-10T04:34:54.013Z,11.40
2022-10-10T04:37:22.338Z,11.10
2022-10-10T04:39:50.673Z,12.20
2022-10-10T04:42:18.887Z,14.20
2022-10-10T04:44:47.250Z,11.90
2022-10-10T04:47:15.530Z,12.90
2022-10-10T04:49:44.033Z,12.60
2022-10-10T04:52:12.466Z,14.50
2022-10-10T04:54:40.906Z,12.30
2022-10-10T04:57:09.162Z,12.40
2022-10-10T04:59:37.429Z,13.20
2022-10-10T05:02:05.863Z,12.00
2022-10-10T05:04:34.124Z,14.20
2022-10-10T05:07:02.414Z,14.00
2022-10-10T05:09:33.380Z,13.20
2022-10-10T05:12:01.922Z,11.70
2022-10-10T05:14:30.259Z,14.90
2022-10-10T05:16:58.918Z,11.70
2022-10-10T05:19:27.147Z,12.60
2022-10-10T05:21:55.350Z,15.00
2022-10-10T05:24:23.815Z,14.70
2022-10-10T05:26:52.081Z,13.10
2022-10-10T05:29:20.352Z,13.70
2022-10-10T05:31:48.605Z,12.90
2022-10-10T05:34:17.058Z,13.30
2022-10-10T05:36:45.531Z,12.20
2022-10-10T05:39:14.040Z,12.50
2022-10-10T05:41:42.332Z,13.20
2022-10-10T05:44:10.559Z,13.30
2022-10-10T05:46:39.051Z,14.30
2022-10-10T05:49:07.296Z,13.00
2022-10-10T05:51:35.999Z,12.30
2022-10-10T05:54:05.314Z,16.80
2022-10-10T05:56:33.840Z,14.70
2022-10-10T05:59:02.854Z,14.80
2022-10-10T06:01:31.822Z,16.70
2022-10-10T06:04:00.288Z,15.60
2022-10-10T06:06:28.754Z,16.90
2022-10-10T06:08:57.320Z,17.00
2022-10-10T06:11:26.164Z,17.10
2022-10-10T06:13:54.788Z,17.40
2022-10-10T06:16:27.925Z,16.60
2022-10-10T06:18:57.288Z,17.10
2022-10-10T06:21:26.299Z,18.00
2022-10-10T06:23:54.733Z,16.20
2022-10-10T06:26:23.077Z,15.70
2022-10-10T06:28:51.376Z,13.80
2022-10-10T06:31:19.877Z,14.50
2022-10-10T06:33:49.323Z,15.10
2022-10-10T06:36:17.614Z,15.20
2022-10-10T06:38:46.420Z,15.10
2022-10-10T06:41:14.704Z,16.70
2022-10-10T06:43:42.954Z,16.80
2022-10-10T06:46:11.904Z,17.10
2022-10-10T07:04:15.219Z,16.50
2022-10-10T07:10:08.142Z,16.40
2022-10-10T07:12:43.567Z,16.40
2022-10-10T07:15:13.337Z,15.70
2022-10-10T07:17:41.700Z,15.10
2022-10-10T07:20:09.918Z,16.00
2022-10-10T07:22:38.515Z,16.90
2022-10-10T07:25:07.381Z,18.30
2022-10-10T07:27:35.602Z,17.90
2022-10-10T07:30:04.275Z,17.90
2022-10-10T07:32:32.542Z,16.20
2022-10-10T07:35:25.789Z,19.60
2022-10-10T07:38:16.886Z,18.00
2022-10-10T07:40:45.219Z,15.70
2022-10-10T07:43:56.685Z,15.90
2022-10-10T07:46:25.470Z,14.80
2022-10-10T07:48:53.694Z,17.30
2022-10-10T07:57:34.858Z,18.60
2022-10-10T08:00:08.050Z,16.90
2022-10-10T08:02:37.011Z,13.90
2022-10-10T08:05:05.949Z,13.60
2022-10-10T08:07:56.627Z,14.90
2022-10-10T08:10:25.248Z,11.90
2022-10-10T08:12:53.645Z,13.10
2022-10-10T08:15:21.911Z,12.20
2022-10-10T08:17:50.344Z,12.10
2022-10-10T08:20:19.201Z,11.60
2022-10-10T08:22:47.427Z,12.50
2022-10-10T08:25:15.868Z,11.90
2022-10-10T08:27:44.253Z,11.40
2022-10-10T08:30:13.164Z,10.10
2022-10-10T08:32:41.415Z,11.00
2022-10-10T08:35:09.618Z,10.70
2022-10-10T08:37:38.218Z,9.50
2022-10-10T08:40:07.989Z,10.80
2022-10-10T08:42:52.478Z,11.90
2022-10-10T08:45:28.519Z,10.30
2022-10-10T08:48:10.868Z,10.90
2022-10-10T08:50:56.222Z,10.30
2022-10-10T08:53:42.395Z,9.50
2022-10-10T08:56:23.463Z,8.80
2022-10-10T08:59:00.349Z,8.70
2022-10-10T09:01:35.019Z,9.80
2022-10-10T09:04:06.881Z,10.40
2022-10-10T09:07:15.107Z,9.80
2022-10-10T09:10:17.768Z,9.70
2022-10-10T09:13:08.297Z,9.40
2022-10-10T09:15:59.338Z,8.60
2022-10-10T09:19:12.522Z,8.30
2022-10-10T09:21:44.077Z,8.80
2022-10-10T09:24:37.833Z,8.70
2022-10-10T09:27:15.218Z,8.60
2022-10-10T09:29:58.657Z,8.80
2022-10-10T09:32:41.388Z,7.90
2022-10-10T09:35:22.661Z,8.10
2022-10-10T09:38:09.351Z,7.80
2022-10-10T09:40:46.306Z,7.80
2022-10-10T09:43:21.218Z,6.40
2022-10-10T09:45:53.723Z,7.40
2022-10-10T09:48:29.406Z,6.80
2022-10-10T09:50:58.398Z,6.50
2022-10-10T09:53:27.101Z,7.60
2022-10-10T09:55:55.678Z,6.60
2022-10-10T09:58:37.937Z,6.80
2022-10-10T10:01:15.657Z,6.50
2022-10-10T10:04:11.493Z,6.20
2022-10-10T10:06:52.186Z,6.30
2022-10-10T10:09:23.175Z,6.50
2022-10-10T10:11:57.576Z,5.90
2022-10-10T10:14:37.742Z,6.40
2022-10-10T10:17:13.874Z,6.60
2022-10-10T10:19:46.868Z,5.40
2022-10-10T10:22:37.338Z,5.60
2022-10-10T10:25:38.666Z,4.40
2022-10-10T10:28:20.703Z,4.30
2022-10-10T10:30:53.700Z,4.50
2022-10-10T10:33:52.455Z,4.90
2022-10-10T10:36:55.519Z,5.40
2022-10-10T10:40:09.773Z,4.70
2022-10-10T10:43:19.888Z,5.00
2022-10-10T10:46:25.366Z,4.50
2022-10-10T10:49:21.883Z,5.10
2022-10-10T10:52:21.878Z,4.30
2022-10-10T10:55:18.915Z,4.70
2022-10-10T10:58:22.411Z,3.90
2022-10-10T11:01:24.232Z,4.60
2022-10-10T11:05:17.739Z,4.50
2022-10-10T11:07:20.626Z,4.60
2022-10-10T11:10:12.085Z,3.60
2022-10-10T11:13:36.750Z,4.00
2022-10-10T11:16:47.430Z,4.40
2022-10-10T11:19:25.392Z,4.80
2022-10-10T11:22:17.842Z,5.30
2022-10-10T11:24:59.012Z,4.80
2022-10-10T11:27:36.068Z,5.10
2022-10-10T11:30:07.413Z,4.20
2022-10-10T11:33:08.146Z,5.60
2022-10-10T11:35:53.581Z,4.60
2022-10-10T11:38:48.506Z,4.10
2022-10-10T11:41:30.794Z,4.60
2022-10-10T11:44:18.332Z,4.20
2022-10-10T11:47:14.327Z,4.90
2022-10-10T11:50:27.073Z,4.40
2022-10-10T11:53:00.860Z,6.10
2022-10-10T11:55:40.148Z,5.20
2022-10-10T11:58:08.316Z,4.30
2022-10-10T12:00:49.008Z,4.70
2022-10-10T12:03:17.327Z,4.10
2022-10-10T12:05:57.405Z,3.60
2022-10-10T12:08:40.421Z,4.10
2022-10-10T12:11:22.033Z,4.20
2022-10-10T12:13:58.164Z,4.20
2022-10-10T12:16:31.298Z,4.30
2022-10-10T12:19:09.044Z,4.10
2022-10-10T12:22:05.456Z,4.20
2022-10-10T12:24:58.431Z,3.70
2022-10-10T12:27:43.660Z,3.70
2022-10-10T12:30:20.025Z,3.60
2022-10-10T12:32:50.375Z,4.70
2022-10-10T12:35:37.152Z,3.90
2022-10-10T12:38:06.077Z,4.50
2022-10-10T12:40:58.066Z,4.20
2022-10-10T12:44:23.011Z,4.10
2022-10-10T12:47:16.396Z,4.00
2022-10-10T12:50:01.552Z,4.00
2022-10-10T12:52:54.951Z,4.20
2022-10-10T12:55:25.967Z,3.60
2022-10-10T12:57:57.663Z,3.90
2022-10-10T13:00:37.352Z,5.30
2022-10-10T13:03:35.207Z,4.80
2022-10-10T13:06:30.524Z,4.70
2022-10-10T13:09:01.412Z,5.00
2022-10-10T13:11:29.945Z,5.00
2022-10-10T13:13:58.267Z,4.50
2022-10-10T13:16:33.626Z,4.80
2022-10-10T13:19:02.336Z,4.40
2022-10-10T13:21:35.369Z,4.80
2022-10-10T13:24:06.222Z,4.20
2022-10-10T13:29:57.586Z,3.90
2022-10-10T13:32:37.363Z,4.40
2022-10-10T13:35:14.976Z,4.90
2022-10-10T13:37:46.233Z,4.40
2022-10-10T13:40:16.930Z,4.90
2022-10-10T13:42:50.109Z,3.90
2022-10-10T13:45:30.172Z,4.80
2022-10-10T13:48:02.859Z,5.00
2022-10-10T13:51:01.565Z,3.80
2022-10-10T13:53:30.445Z,4.50
2022-10-10T13:56:41.331Z,3.60
2022-10-10T13:59:14.214Z,4.30
2022-10-10T14:01:46.028Z,4.50
2022-10-10T14:04:53.622Z,4.80
2022-10-10T14:07:26.698Z,4.20
2022-10-10T14:10:04.534Z,4.00
2022-10-10T14:12:41.280Z,5.00
2022-10-10T14:15:35.296Z,3.90
2022-10-10T14:18:20.762Z,4.10
2022-10-10T14:20:53.663Z,5.60
2022-10-10T14:23:22.325Z,4.80
2022-10-10T14:25:50.861Z,4.30
2022-10-10T14:28:27.139Z,4.50
2022-10-10T14:30:55.792Z,4.50
2022-10-10T14:33:26.618Z,3.80
2022-10-10T14:35:58.919Z,4.30
2022-10-10T14:38:27.577Z,4.60
2022-10-10T14:40:56.127Z,5.50
2022-10-10T14:43:26.333Z,4.50
2022-10-10T14:45:55.762Z,4.80
2022-10-10T14:48:24.079Z,4.70
2022-10-10T14:50:52.362Z,4.40
2022-10-10T14:53:21.103Z,4.30
2022-10-10T14:55:55.279Z,4.50
2022-10-10T14:58:24.491Z,4.60
2022-10-10T15:00:53.387Z,5.30
2022-10-10T15:03:22.126Z,4.90
2022-10-10T15:05:50.978Z,3.90
2022-10-10T15:08:19.530Z,4.00
2022-10-10T15:10:48.488Z,4.60
2022-10-10T15:13:16.870Z,4.60
2022-10-10T15:15:47.417Z,3.70
2022-10-10T15:18:39.500Z,5.00
2022-10-10T15:21:12.208Z,4.60
2022-10-10T15:23:40.816Z,4.60
2022-10-10T15:26:09.126Z,4.80
2022-10-10T15:28:37.502Z,4.80
2022-10-10T15:31:06.370Z,4.70
2022-10-10T15:33:34.630Z,4.90
2022-10-10T15:36:09.848Z,5.60
2022-10-10T15:38:38.767Z,5.40
2022-10-10T15:41:10.121Z,4.40
2022-10-10T15:43:52.674Z,5.10
2022-10-10T15:46:24.942Z,4.90
2022-10-10T15:48:55.195Z,4.90
2022-10-10T15:51:23.375Z,4.90
2022-10-10T15:53:52.506Z,4.50
2022-10-10T15:56:20.757Z,5.80
2022-10-10T15:58:49.198Z,5.70
2022-10-10T16:01:19.815Z,5.40
2022-10-10T16:03:49.477Z,5.40
2022-10-10T16:06:21.517Z,4.90
2022-10-10T16:08:55.771Z,4.70
2022-10-10T16:11:32.798Z,5.10
2022-10-10T16:14:01.001Z,5.40
2022-10-10T16:16:29.557Z,7.00
2022-10-10T16:18:57.882Z,8.20
2022-10-10T16:21:26.575Z,6.50
2022-10-10T16:23:57.840Z,6.50
2022-10-10T16:26:33.035Z,5.90
2022-10-10T16:29:02.738Z,6.00
2022-10-10T16:31:31.636Z,5.80
2022-10-10T16:34:00.025Z,5.70
2022-10-10T16:36:35.422Z,5.10
2022-10-10T16:39:04.891Z,4.70
2022-10-10T16:41:47.678Z,4.60
2022-10-10T16:44:18.104Z,4.70
2022-10-10T16:46:46.660Z,5.30
2022-10-10T16:49:20.632Z,4.50
2022-10-10T16:51:49.948Z,4.70
2022-10-10T16:54:18.242Z,4.90
2022-10-10T16:56:46.564Z,6.20
2022-10-10T16:59:14.916Z,5.50
2022-10-10T17:01:43.455Z,5.00
2022-10-10T17:04:11.875Z,5.50
2022-10-10T17:06:40.165Z,6.30
2022-10-10T17:09:10.187Z,5.80
2022-10-10T17:11:38.533Z,5.90
2022-10-10T17:14:06.980Z,5.50
2022-10-10T17:19:23.703Z,6.60
2022-10-10T17:21:51.997Z,5.90
2022-10-10T17:24:20.398Z,6.20
2022-10-10T17:26:49.542Z,6.50
2022-10-10T17:29:18.153Z,6.30
2022-10-10T17:31:46.558Z,6.90
2022-10-10T17:34:15.806Z,8.20
2022-10-10T17:36:44.294Z,6.80
2022-10-10T17:39:12.858Z,8.60
2022-10-10T17:41:41.110Z,7.10
2022-10-10T17:44:11.016Z,7.00
2022-10-10T17:46:39.770Z,7.30
2022-10-10T17:49:11.671Z,7.90
2022-10-10T17:51:41.763Z,6.60
2022-10-10T17:54:10.721Z,7.40
2022-10-10T17:56:40.845Z,7.40
2022-10-10T17:59:10.404Z,8.00
2022-10-10T18:01:39.947Z,6.70
2022-10-10T18:04:08.534Z,6.80
2022-10-10T18:06:38.136Z,6.50
2022-10-10T18:09:07.526Z,7.10
2022-10-10T18:11:35.866Z,7.60
2022-10-10T18:14:04.202Z,8.00
2022-10-10T18:16:35.105Z,7.20
2022-10-10T18:19:07.885Z,7.50
2022-10-10T18:21:36.375Z,7.20
2022-10-10T18:24:05.436Z,6.90
2022-10-10T18:26:35.293Z,7.40
2022-10-10T18:29:04.022Z,7.40
2022-10-10T18:31:35.356Z,7.00
2022-10-10T18:34:05.947Z,7.30
2022-10-10T18:36:38.593Z,6.90
2022-10-10T18:39:13.031Z,7.20
2022-10-10T18:41:41.875Z,7.60
2022-10-10T18:44:18.268Z,6.90
2022-10-10T18:46:48.454Z,7.90
2022-10-10T18:49:16.688Z,6.40
2022-10-10T18:51:45.058Z,6.70
2022-10-10T18:54:17.393Z,7.30
2022-10-10T18:56:47.268Z,7.70
2022-10-10T18:59:19.365Z,7.20
2022-10-10T19:01:50.364Z,7.60
2022-10-10T19:04:20.749Z,8.50
2022-10-10T19:06:56.006Z,8.80
2022-10-10T19:09:25.965Z,9.10
2022-10-10T19:11:54.405Z,9.50
2022-10-10T19:14:23.031Z,9.90
2022-10-10T19:16:51.389Z,10.40
2022-10-10T19:19:20.913Z,10.10
2022-10-10T19:21:50.043Z,9.60
2022-10-10T19:24:21.146Z,9.70
2022-10-10T19:26:53.285Z,9.80
2022-10-10T19:29:23.171Z,10.10
2022-10-10T19:31:52.104Z,10.60
2022-10-10T19:34:20.640Z,10.20
2022-10-10T19:36:48.976Z,9.20
2022-10-10T19:39:17.492Z,9.00
2022-10-10T19:41:45.913Z,8.30
2022-10-10T19:44:14.227Z,9.00
2022-10-10T19:46:42.633Z,8.20
2022-10-10T19:49:11.040Z,7.80
2022-10-10T19:51:39.481Z,8.40
2022-10-10T19:54:07.808Z,7.90
2022-10-10T19:56:36.770Z,7.70
2022-10-10T19:59:06.014Z,8.10
2022-10-10T20:01:34.485Z,8.70
2022-10-10T20:04:02.991Z,7.20
2022-10-10T20:06:31.446Z,8.10
2022-10-10T20:08:59.763Z,8.30
2022-10-10T20:11:28.297Z,7.50
2022-10-10T20:13:57.497Z,7.70
2022-10-10T20:16:26.975Z,8.90
2022-10-10T20:18:58.456Z,7.50
2022-10-10T20:21:32.941Z,6.90
2022-10-10T20:24:07.247Z,8.40
2022-10-10T20:26:36.874Z,7.60
2022-10-10T20:29:06.707Z,7.50
2022-10-10T20:31:37.504Z,7.10
2022-10-10T20:34:07.073Z,6.90
2022-10-10T20:36:36.452Z,7.40
2022-10-10T20:39:13.299Z,7.40
2022-10-10T20:41:42.949Z,6.90
2022-10-10T20:44:14.364Z,6.50
2022-10-10T20:46:45.188Z,7.30
2022-10-10T20:49:19.321Z,6.00
2022-10-10T20:51:49.611Z,7.00
2022-10-10T20:54:23.811Z,6.50
2022-10-10T20:56:52.334Z,7.20
2022-10-10T20:59:22.439Z,6.70
2022-10-10T21:01:50.952Z,7.00
2022-10-10T21:04:19.418Z,7.10
2022-10-10T21:06:47.907Z,7.60
2022-10-10T21:09:16.206Z,7.00
2022-10-10T21:11:47.627Z,6.30
2022-10-10T21:14:19.236Z,7.00
2022-10-10T21:16:48.411Z,7.10
2022-10-10T21:19:17.507Z,8.10
2022-10-10T21:21:45.924Z,7.10
2022-10-10T21:24:14.782Z,7.40
2022-10-10T21:26:45.411Z,7.40
2022-10-10T21:29:13.813Z,7.60
2022-10-10T21:31:42.956Z,6.70
2022-10-10T21:34:15.547Z,6.80
2022-10-10T21:36:43.882Z,6.60
2022-10-10T21:39:13.966Z,6.20
2022-10-10T21:41:42.529Z,7.30
2022-10-10T21:44:10.992Z,7.30
2022-10-10T21:46:39.354Z,7.50
2022-10-10T21:49:11.647Z,7.10
2022-10-10T21:51:45.525Z,7.40
2022-10-10T21:54:14.605Z,6.60
2022-10-10T21:56:43.001Z,7.50
2022-10-10T21:59:12.003Z,7.50
2022-10-10T22:01:40.482Z,7.90
2022-10-10T22:04:10.317Z,7.00
2022-10-10T22:06:38.721Z,7.90
2022-10-10T22:09:07.056Z,7.70
2022-10-10T22:11:35.463Z,8.50
2022-10-10T22:14:04.429Z,7.20
2022-10-10T22:16:34.611Z,7.90
2022-10-10T22:19:04.408Z,6.80
2022-10-10T22:21:35.002Z,7.60
2022-10-10T22:24:07.462Z,7.10
2022-10-10T22:26:36.525Z,7.10
2022-10-10T22:29:05.215Z,8.30
2022-10-10T22:31:37.660Z,7.30
2022-10-10T22:34:06.991Z,9.00
2022-10-10T22:36:35.559Z,7.30
2022-10-10T22:39:04.576Z,8.40
2022-10-10T22:41:32.894Z,8.30
2022-10-10T22:44:01.175Z,8.00
2022-10-10T22:46:30.237Z,7.30
2022-10-10T22:48:58.500Z,7.00
2022-10-10T22:51:26.703Z,6.60
2022-10-10T22:53:54.931Z,7.60
2022-10-10T22:56:23.519Z,7.00
2022-10-10T22:58:52.237Z,7.20
2022-10-10T23:01:24.289Z,7.70
2022-10-10T23:04:00.378Z,7.70
2022-10-10T23:06:29.391Z,7.00
2022-10-10T23:08:58.272Z,7.00
2022-10-10T23:11:26.757Z,8.10
2022-10-10T23:13:55.048Z,7.80
2022-10-10T23:16:23.428Z,7.90
2022-10-10T23:18:51.663Z,8.30
2022-10-10T23:21:20.106Z,6.80
2022-10-10T23:23:48.439Z,7.50
2022-10-10T23:26:17.252Z,7.10
2022-10-10T23:28:46.000Z,6.90
2022-10-10T23:31:14.431Z,7.10
2022-10-10T23:33:44.387Z,7.00
2022-10-10T23:36:14.859Z,7.40
2022-10-10T23:38:43.777Z,7.70
2022-10-10T23:41:14.477Z,7.00
2022-10-10T23:43:42.870Z,7.00
2022-10-10T23:46:11.855Z,7.70
2022-10-10T23:48:40.168Z,7.50
2022-10-10T23:51:09.142Z,6.10
2022-10-10T23:53:37.658Z,8.00
2022-10-10T23:56:06.691Z,7.90
2022-10-10T23:58:35.940Z,7.50
